createdAt,value
2022-11-27T00:01:28.630Z,100232.81
2022-11-27T00:03:57.076Z,100222.72
2022-11-27T00:06:26.862Z,100235.91
2022-11-27T00:08:56.023Z,100236.03
2022-11-27T00:11:25.081Z,100234.03
2022-11-27T00:13:53.121Z,100231.56
2022-11-27T00:16:22.217Z,100229.13
2022-11-27T00:18:50.380Z,100231.97
2022-11-27T00:21:22.687Z,100226.81
2022-11-27T00:23:51.694Z,100227.75
2022-11-27T00:26:19.658Z,100219.03
2022-11-27T00:28:47.118Z,100222.28
2022-11-27T00:31:18.324Z,100223.94
2022-11-27T00:33:46.408Z,100235.94
2022-11-27T00:36:14.958Z,100229.53
2022-11-27T00:38:42.741Z,100226.38
2022-11-27T00:41:16.856Z,100231.28
2022-11-27T00:43:45.580Z,100223.91
2022-11-27T00:46:14.819Z,100230.97
2022-11-27T00:48:42.718Z,100225.97
2022-11-27T00:51:12.526Z,100237.81
2022-11-27T00:53:40.057Z,100241.47
2022-11-27T00:56:07.905Z,100237.81
2022-11-27T00:58:35.234Z,100241.63
2022-11-27T01:01:06.518Z,100238.53
2022-11-27T01:03:34.814Z,100229.13
2022-11-27T01:06:07.083Z,100242.47
2022-11-27T01:08:35.154Z,100227.75
2022-11-27T01:11:03.145Z,100236.91
2022-11-27T01:13:34.289Z,100236.91
2022-11-27T01:16:14.261Z,100232.97
2022-11-27T01:18:43.980Z,100234.19
2022-11-27T01:21:12.740Z,100242.09
2022-11-27T01:23:40.483Z,100224.91
2022-11-27T01:26:09.845Z,100230.38
2022-11-27T01:28:39.921Z,100228.16
2022-11-27T01:31:11.572Z,100229.94
2022-11-27T01:33:39.398Z,100231.59
2022-11-27T01:36:09.043Z,100230.38
2022-11-27T01:38:37.009Z,100236.50
2022-11-27T01:41:21.887Z,100231.44
2022-11-27T01:43:53.596Z,100238.50
2022-11-27T01:46:27.387Z,100235.38
2022-11-27T01:49:00.142Z,100242.16
2022-11-27T01:51:27.871Z,100234.28
2022-11-27T01:53:55.937Z,100221.44
2022-11-27T01:56:24.780Z,100232.28
2022-11-27T01:58:52.937Z,100235.28
2022-11-27T02:01:20.410Z,100245.06
2022-11-27T02:03:47.787Z,100240.13
2022-11-27T02:06:15.183Z,100236.00
2022-11-27T02:08:42.931Z,100240.78
2022-11-27T02:11:19.192Z,100245.66
2022-11-27T02:13:59.894Z,100237.38
2022-11-27T02:16:33.352Z,100249.13
2022-11-27T02:19:07.687Z,100232.97
2022-11-27T02:21:54.265Z,100249.28
2022-11-27T02:24:49.319Z,100230.84
2022-11-27T02:27:28.334Z,100238.38
2022-11-27T02:30:00.006Z,100228.28
2022-11-27T02:32:39.674Z,100228.16
2022-11-27T02:35:23.839Z,100217.25
2022-11-27T02:37:59.823Z,100224.63
2022-11-27T02:40:53.459Z,100229.69
2022-11-27T02:43:38.040Z,100228.03
2022-11-27T02:46:08.350Z,100236.91
2022-11-27T02:48:44.852Z,100228.31
2022-11-27T02:51:15.021Z,100220.88
2022-11-27T02:53:48.859Z,100228.75
2022-11-27T02:56:20.746Z,100230.91
2022-11-27T02:58:51.120Z,100235.00
2022-11-27T03:01:22.298Z,100228.19
2022-11-27T03:03:55.831Z,100235.00
2022-11-27T03:06:33.676Z,100235.81
2022-11-27T03:09:10.627Z,100228.59
2022-11-27T03:11:38.179Z,100230.63
2022-11-27T03:14:08.869Z,100229.25
2022-11-27T03:16:43.167Z,100238.38
2022-11-27T03:19:22.817Z,100234.28
2022-11-27T03:21:56.791Z,100231.19
2022-11-27T03:24:25.495Z,100239.88
2022-11-27T03:26:53.075Z,100239.44
2022-11-27T03:29:25.242Z,100242.88
2022-11-27T03:31:52.920Z,100244.66
2022-11-27T03:34:20.421Z,100241.00
2022-11-27T03:36:47.841Z,100249.88
2022-11-27T03:39:15.774Z,100244.59
2022-11-27T03:42:15.842Z,100250.59
2022-11-27T03:45:08.748Z,100265.91
2022-11-27T03:47:48.080Z,100268.09
2022-11-27T03:50:38.477Z,100263.91
2022-11-27T03:53:13.907Z,100267.16
2022-11-27T03:55:44.314Z,100269.63
2022-11-27T03:59:03.998Z,100267.03
2022-11-27T04:01:32.090Z,100264.19
2022-11-27T04:03:59.620Z,100263.63
2022-11-27T04:06:27.047Z,100271.13
2022-11-27T04:08:54.440Z,100270.75
2022-11-27T04:11:21.841Z,100240.16
2022-11-27T04:13:49.240Z,100260.28
2022-11-27T04:16:16.747Z,100259.84
2022-11-27T04:18:44.473Z,100260.47
2022-11-27T04:21:13.023Z,100255.44
2022-11-27T04:23:41.084Z,100258.88
2022-11-27T04:26:08.598Z,100256.06
2022-11-27T04:28:36.020Z,100268.69
2022-11-27T04:31:03.551Z,100224.66
2022-11-27T04:33:31.012Z,100263.28
2022-11-27T04:35:58.446Z,100272.13
2022-11-27T04:38:25.915Z,100271.28
2022-11-27T04:40:56.345Z,100272.06
2022-11-27T04:43:23.802Z,100270.34
2022-11-27T04:45:51.187Z,100272.28
2022-11-27T04:48:18.595Z,100272.72
2022-11-27T04:50:46.307Z,100279.00
2022-11-27T04:53:13.838Z,100281.44
2022-11-27T04:55:41.437Z,100281.69
2022-11-27T04:58:08.927Z,100283.53
2022-11-27T05:00:36.577Z,100269.34
2022-11-27T05:03:04.366Z,100276.91
2022-11-27T05:05:31.856Z,100281.31
2022-11-27T05:07:59.334Z,100292.47
2022-11-27T05:10:26.702Z,100292.03
2022-11-27T05:12:54.112Z,100285.81
2022-11-27T05:15:21.572Z,100286.38
2022-11-27T05:17:49.027Z,100296.53
2022-11-27T05:20:16.408Z,100302.00
2022-11-27T05:22:45.079Z,100296.41
2022-11-27T05:25:12.531Z,100308.06
2022-11-27T05:27:39.909Z,100303.72
2022-11-27T05:30:08.059Z,100306.44
2022-11-27T05:32:35.386Z,100296.13
2022-11-27T05:35:02.877Z,100297.47
2022-11-27T05:37:30.401Z,100294.47
2022-11-27T05:39:57.865Z,100295.72
2022-11-27T05:42:25.294Z,100296.16
2022-11-27T05:44:57.794Z,100298.31
2022-11-27T05:47:25.993Z,100302.56
2022-11-27T05:49:53.742Z,100296.56
2022-11-27T05:52:21.097Z,100285.16
2022-11-27T05:54:48.474Z,100296.59
2022-11-27T05:57:15.815Z,100303.28
2022-11-27T05:59:43.208Z,100305.25
2022-11-27T06:02:15.079Z,100302.50
2022-11-27T06:04:45.830Z,100299.66
2022-11-27T06:07:13.245Z,100305.16
2022-11-27T06:09:40.610Z,100306.75
2022-11-27T06:12:08.200Z,100299.41
2022-11-27T06:14:35.942Z,100305.56
2022-11-27T06:17:04.303Z,100264.94
2022-11-27T06:19:31.736Z,100298.00
2022-11-27T06:21:59.258Z,100291.47
2022-11-27T06:24:26.961Z,100300.78
2022-11-27T06:26:54.378Z,100299.81
2022-11-27T06:29:21.740Z,100295.09
2022-11-27T06:31:49.184Z,100297.41
2022-11-27T06:34:16.717Z,100299.34
2022-11-27T06:36:44.230Z,100295.13
2022-11-27T06:39:12.246Z,100303.91
2022-11-27T06:41:39.671Z,100294.94
2022-11-27T06:44:07.168Z,100302.25
2022-11-27T06:46:34.503Z,100294.44
2022-11-27T06:49:02.107Z,100300.94
2022-11-27T06:51:31.180Z,100297.97
2022-11-27T06:54:01.321Z,100300.75
2022-11-27T06:56:30.908Z,100294.88
2022-11-27T06:59:00.475Z,100297.28
2022-11-27T07:01:30.069Z,100297.56
2022-11-27T07:03:57.927Z,100293.47
2022-11-27T07:06:26.952Z,100301.06
2022-11-27T07:08:55.526Z,100297.16
2022-11-27T07:11:26.483Z,100299.13
2022-11-27T07:13:56.474Z,100310.13
2022-11-27T07:16:24.543Z,100306.19
2022-11-27T07:18:56.672Z,100306.34
2022-11-27T07:21:24.786Z,100309.09
2022-11-27T07:23:52.346Z,100314.88
2022-11-27T07:26:22.383Z,100308.34
2022-11-27T07:28:49.874Z,100309.91
2022-11-27T07:31:20.790Z,100313.31
2022-11-27T07:33:49.991Z,100308.28
2022-11-27T07:36:23.315Z,100314.16
2022-11-27T07:38:51.080Z,100316.06
2022-11-27T07:41:18.914Z,100318.19
2022-11-27T07:43:46.966Z,100322.91
2022-11-27T07:46:23.835Z,100328.53
2022-11-27T07:48:51.683Z,100302.75
2022-11-27T07:51:21.129Z,100330.97
2022-11-27T07:53:51.901Z,100332.47
2022-11-27T07:56:19.768Z,100329.44
2022-11-27T07:58:48.085Z,100340.13
2022-11-27T08:01:17.976Z,100332.53
2022-11-27T08:03:46.118Z,100320.84
2022-11-27T08:06:25.191Z,100325.47
2022-11-27T08:08:53.679Z,100328.88
2022-11-27T08:11:24.760Z,100325.97
2022-11-27T08:13:57.541Z,100333.00
2022-11-27T08:16:25.312Z,100331.59
2022-11-27T08:18:53.103Z,100335.69
2022-11-27T08:21:20.612Z,100341.75
2022-11-27T08:23:48.144Z,100330.47
2022-11-27T08:26:16.003Z,100331.34
2022-11-27T08:28:44.071Z,100332.31
2022-11-27T08:31:13.249Z,100331.81
2022-11-27T08:33:41.057Z,100331.81
2022-11-27T08:36:12.559Z,100330.34
2022-11-27T08:38:42.713Z,100338.31
2022-11-27T08:41:10.487Z,100335.25
2022-11-27T08:43:37.862Z,100327.22
2022-11-27T08:46:07.258Z,100333.09
2022-11-27T08:48:35.341Z,100335.69
2022-11-27T08:51:11.561Z,100335.22
2022-11-27T08:53:39.467Z,100328.00
2022-11-27T08:56:15.379Z,100332.94
2022-11-27T08:58:43.567Z,100336.97
2022-11-27T09:01:32.894Z,100333.69
2022-11-27T09:04:00.805Z,100329.31
2022-11-27T09:06:31.433Z,100339.06
2022-11-27T09:09:01.192Z,100334.16
2022-11-27T09:11:31.786Z,100337.91
2022-11-27T09:14:00.931Z,100336.78
2022-11-27T09:16:30.339Z,100342.13
2022-11-27T09:18:58.483Z,100344.38
2022-11-27T09:21:28.156Z,100337.19
2022-11-27T09:23:58.062Z,100338.78
2022-11-27T09:26:26.621Z,100344.31
2022-11-27T09:28:55.482Z,100336.94
2022-11-27T09:31:23.594Z,100337.09
2022-11-27T09:33:51.050Z,100332.16
2022-11-27T09:36:24.522Z,100326.56
2022-11-27T09:38:53.908Z,100334.66
2022-11-27T09:41:50.526Z,100336.00
2022-11-27T09:44:43.284Z,100297.00
2022-11-27T09:47:41.146Z,100336.25
2022-11-27T09:50:25.244Z,100345.38
2022-11-27T09:52:52.571Z,100334.09
2022-11-27T09:55:40.129Z,100332.97
2022-11-27T09:58:26.939Z,100328.00
2022-11-27T10:00:54.447Z,100337.69
2022-11-27T10:03:27.449Z,100344.16
2022-11-27T10:06:12.311Z,100344.31
2022-11-27T10:09:10.144Z,100351.53
2022-11-27T10:11:41.764Z,100355.63
2022-11-27T10:14:34.336Z,100348.13
2022-11-27T10:17:37.677Z,100351.22
2022-11-27T10:20:29.280Z,100345.66
2022-11-27T10:23:10.688Z,100356.09
2022-11-27T10:25:49.123Z,100355.03
2022-11-27T10:28:35.609Z,100341.00
2022-11-27T10:31:08.773Z,100353.81
2022-11-27T10:33:45.775Z,100347.16
2022-11-27T10:36:22.347Z,100358.31
2022-11-27T10:38:51.176Z,100352.75
2022-11-27T10:41:49.254Z,100351.53
2022-11-27T10:44:25.828Z,100357.16
2022-11-27T10:46:59.893Z,100357.03
2022-11-27T10:49:27.329Z,100355.41
2022-11-27T10:51:54.874Z,100356.91
2022-11-27T10:54:32.652Z,100374.13
2022-11-27T10:57:15.033Z,100371.81
2022-11-27T10:59:59.097Z,100380.16
2022-11-27T11:02:38.837Z,100366.38
2022-11-27T11:05:50.918Z,100384.78
2022-11-27T11:08:21.391Z,100378.22
2022-11-27T11:11:09.926Z,100377.09
2022-11-27T11:13:40.405Z,100376.72
2022-11-27T11:16:24.741Z,100373.03
2022-11-27T11:18:55.842Z,100381.16
2022-11-27T11:21:32.762Z,100381.03
2022-11-27T11:24:07.343Z,100372.72
2022-11-27T11:26:39.549Z,100374.59
2022-11-27T11:29:26.241Z,100373.94
2022-11-27T11:31:55.493Z,100390.84
2022-11-27T11:34:27.956Z,100377.88
2022-11-27T11:37:03.661Z,100377.75
2022-11-27T11:39:37.363Z,100380.34
2022-11-27T11:42:23.760Z,100382.81
2022-11-27T11:45:02.533Z,100384.47
2022-11-27T11:47:32.361Z,100389.06
2022-11-27T11:50:00.179Z,100378.19
2022-11-27T11:52:52.573Z,100380.19
2022-11-27T11:55:46.856Z,100373.91
2022-11-27T11:58:29.928Z,100374.72
2022-11-27T12:01:27.258Z,100371.72
2022-11-27T12:04:13.308Z,100380.84
2022-11-27T12:06:52.980Z,100371.13
2022-11-27T12:09:46.788Z,100379.97
2022-11-27T12:12:39.939Z,100381.47
2022-11-27T12:15:37.526Z,100374.66
2022-11-27T12:18:27.815Z,100376.66
2022-11-27T12:21:15.431Z,100372.72
2022-11-27T12:24:01.452Z,100376.53
2022-11-27T12:26:56.494Z,100377.03
2022-11-27T12:29:54.945Z,100377.28
2022-11-27T12:32:40.694Z,100370.22
2022-11-27T12:35:17.325Z,100373.22
2022-11-27T12:38:00.014Z,100371.06
2022-11-27T12:40:43.582Z,100364.53
2022-11-27T12:43:25.934Z,100370.75
2022-11-27T12:46:16.231Z,100368.31
2022-11-27T12:48:59.406Z,100364.78
2022-11-27T12:51:43.480Z,100358.47
2022-11-27T12:54:19.240Z,100361.34
2022-11-27T12:56:52.233Z,100362.28
2022-11-27T12:59:58.770Z,100353.31
2022-11-27T13:02:46.762Z,100357.53
2022-11-27T13:05:26.316Z,100365.41
2022-11-27T13:08:03.291Z,100372.63
2022-11-27T13:10:37.061Z,100361.34
2022-11-27T13:13:30.577Z,100364.41
2022-11-27T13:16:19.152Z,100353.44
2022-11-27T13:18:58.228Z,100354.25
2022-11-27T13:21:32.952Z,100365.53
2022-11-27T13:24:02.213Z,100366.25
2022-11-27T13:26:42.439Z,100358.94
2022-11-27T13:29:42.560Z,100364.50
2022-11-27T13:32:25.423Z,100371.34
2022-11-27T13:34:55.709Z,100362.63
2022-11-27T13:37:37.020Z,100359.63
2022-11-27T13:40:07.236Z,100359.34
2022-11-27T13:42:42.089Z,100357.19
2022-11-27T13:45:19.491Z,100376.13
2022-11-27T13:47:48.543Z,100364.97
2022-11-27T13:50:23.878Z,100356.25
2022-11-27T13:53:00.969Z,100364.69
2022-11-27T13:55:32.788Z,100363.09
2022-11-27T13:58:02.928Z,100368.41
2022-11-27T14:00:45.460Z,100362.81
2022-11-27T14:03:30.679Z,100366.22
2022-11-27T14:05:58.783Z,100357.19
2022-11-27T14:08:31.270Z,100359.13
2022-11-27T14:11:06.599Z,100353.94
2022-11-27T14:13:47.012Z,100354.06
2022-11-27T14:16:36.485Z,100350.84
2022-11-27T14:19:07.228Z,100354.50
2022-11-27T14:21:41.488Z,100356.69
2022-11-27T14:24:30.721Z,100356.44
2022-11-27T14:26:58.345Z,100372.94
2022-11-27T14:29:31.196Z,100364.19
2022-11-27T14:32:03.468Z,100378.78
2022-11-27T14:34:34.624Z,100374.44
2022-11-27T14:37:02.496Z,100371.97
2022-11-27T14:39:37.164Z,100369.78
2022-11-27T14:42:08.319Z,100380.13
2022-11-27T14:44:37.109Z,100377.69
2022-11-27T14:47:08.779Z,100373.31
2022-11-27T14:49:36.401Z,100379.28
2022-11-27T14:52:08.010Z,100377.34
2022-11-27T14:54:38.792Z,100375.16
2022-11-27T14:57:08.132Z,100378.41
2022-11-27T14:59:35.665Z,100371.88
2022-11-27T15:02:12.785Z,100365.34
2022-11-27T15:04:43.035Z,100370.50
2022-11-27T15:07:22.356Z,100369.09
2022-11-27T15:09:53.166Z,100358.56
2022-11-27T15:12:35.501Z,100363.22
2022-11-27T15:15:22.419Z,100358.47
2022-11-27T15:18:11.757Z,100358.31
2022-11-27T15:20:45.574Z,100353.56
2022-11-27T15:23:21.003Z,100359.56
2022-11-27T15:26:03.832Z,100353.00
2022-11-27T15:28:38.027Z,100353.41
2022-11-27T15:31:28.554Z,100357.63
2022-11-27T15:34:27.375Z,100365.88
2022-11-27T15:37:04.274Z,100352.41
2022-11-27T15:39:49.028Z,100354.34
2022-11-27T15:42:18.116Z,100357.44
2022-11-27T15:44:47.228Z,100352.16
2022-11-27T15:47:35.580Z,100359.47
2022-11-27T15:50:06.723Z,100353.97
2022-11-27T15:52:34.631Z,100345.91
2022-11-27T15:55:02.166Z,100357.06
2022-11-27T15:57:30.115Z,100358.00
2022-11-27T15:59:57.702Z,100362.06
2022-11-27T16:02:28.585Z,100353.63
2022-11-27T16:04:56.647Z,100365.59
2022-11-27T16:07:24.384Z,100365.09
2022-11-27T16:09:51.937Z,100367.91
2022-11-27T16:12:19.576Z,100358.78
2022-11-27T16:14:47.511Z,100369.63
2022-11-27T16:17:15.045Z,100372.06
2022-11-27T16:19:44.541Z,100369.22
2022-11-27T16:22:11.993Z,100372.06
2022-11-27T16:24:40.637Z,100369.38
2022-11-27T16:27:10.011Z,100375.13
2022-11-27T16:29:37.675Z,100361.72
2022-11-27T16:32:06.305Z,100368.16
2022-11-27T16:34:35.289Z,100371.13
2022-11-27T16:37:04.326Z,100366.22
2022-11-27T16:39:33.110Z,100365.38
2022-11-27T16:42:00.846Z,100366.47
2022-11-27T16:44:28.686Z,100351.59
2022-11-27T16:46:57.373Z,100358.81
2022-11-27T16:49:24.983Z,100361.66
2022-11-27T16:51:52.740Z,100360.22
2022-11-27T16:54:20.291Z,100355.31
2022-11-27T16:56:48.396Z,100364.38
2022-11-27T16:59:17.678Z,100348.88
2022-11-27T17:01:46.819Z,100347.53
2022-11-27T17:04:20.269Z,100348.13
2022-11-27T17:06:49.953Z,100346.47
2022-11-27T17:09:18.416Z,100344.03
2022-11-27T17:11:49.003Z,100345.22
2022-11-27T17:14:19.881Z,100339.59
2022-11-27T17:16:48.284Z,100330.31
2022-11-27T17:19:16.626Z,100338.53
2022-11-27T17:21:46.007Z,100330.50
2022-11-27T17:24:16.089Z,100337.13
2022-11-27T17:26:48.257Z,100331.09
2022-11-27T17:29:19.468Z,100333.34
2022-11-27T17:31:51.049Z,100336.19
2022-11-27T17:34:19.157Z,100345.47
2022-11-27T17:36:50.992Z,100355.34
2022-11-27T17:39:19.023Z,100346.28
2022-11-27T17:41:46.662Z,100347.88
2022-11-27T17:44:14.303Z,100337.53
2022-11-27T17:46:42.063Z,100348.94
2022-11-27T17:49:11.118Z,100348.38
2022-11-27T17:51:39.155Z,100348.47
2022-11-27T17:54:06.908Z,100353.53
2022-11-27T17:56:35.286Z,100353.47
2022-11-27T17:59:04.634Z,100342.44
2022-11-27T18:01:34.646Z,100357.00
2022-11-27T18:04:05.641Z,100361.97
2022-11-27T18:06:34.111Z,100358.47
2022-11-27T18:09:01.966Z,100352.84
2022-11-27T18:11:32.121Z,100357.31
2022-11-27T18:14:01.072Z,100349.44
2022-11-27T18:16:36.246Z,100359.25
2022-11-27T18:19:06.463Z,100350.00
2022-11-27T18:21:36.463Z,100358.66
2022-11-27T18:27:10.556Z,100353.78
2022-11-27T18:29:41.048Z,100358.81
2022-11-27T18:32:09.292Z,100352.59
2022-11-27T18:34:37.169Z,100350.19
2022-11-27T18:37:05.757Z,100337.72
2022-11-27T18:39:35.638Z,100366.78
2022-11-27T18:42:05.187Z,100368.88
2022-11-27T18:44:39.733Z,100369.59
2022-11-27T18:47:17.646Z,100371.44
2022-11-27T18:49:47.605Z,100372.41
2022-11-27T18:52:15.431Z,100380.50
2022-11-27T18:54:43.252Z,100374.75
2022-11-27T18:57:11.448Z,100374.09
2022-11-27T18:59:40.004Z,100386.13
2022-11-27T19:02:08.250Z,100376.59
2022-11-27T19:04:40.842Z,100378.53
2022-11-27T19:07:08.787Z,100372.25
2022-11-27T19:09:37.206Z,100376.38
2022-11-27T19:12:05.095Z,100373.91
2022-11-27T19:14:34.248Z,100385.66
2022-11-27T19:17:01.812Z,100371.19
2022-11-27T19:19:53.971Z,100367.94
2022-11-27T19:22:20.933Z,100374.88
2022-11-27T19:24:48.638Z,100390.56
2022-11-27T19:27:16.113Z,100376.63
2022-11-27T19:29:45.235Z,100384.13
2022-11-27T19:32:12.820Z,100385.06
2022-11-27T19:34:41.655Z,100380.59
2022-11-27T19:37:09.522Z,100384.81
2022-11-27T19:39:37.021Z,100379.63
2022-11-27T19:42:06.497Z,100375.63
2022-11-27T19:44:34.785Z,100373.56
2022-11-27T19:47:03.491Z,100370.69
2022-11-27T19:49:31.129Z,100373.66
2022-11-27T19:51:58.981Z,100378.59
2022-11-27T19:54:26.881Z,100376.25
2022-11-27T19:56:54.784Z,100378.22
2022-11-27T19:59:25.954Z,100375.72
2022-11-27T20:01:55.212Z,100383.22
2022-11-27T20:04:28.031Z,100376.78
2022-11-27T20:06:55.855Z,100383.22
2022-11-27T20:09:23.736Z,100379.38
2022-11-27T20:11:51.506Z,100370.91
2022-11-27T20:14:19.711Z,100379.19
2022-11-27T20:16:48.001Z,100374.28
2022-11-27T20:19:16.206Z,100365.84
2022-11-27T20:21:45.334Z,100378.75
2022-11-27T20:24:16.158Z,100379.19
2022-11-27T20:26:44.709Z,100375.53
2022-11-27T20:29:13.828Z,100374.47
2022-11-27T20:31:44.024Z,100362.31
2022-11-27T20:34:18.435Z,100367.06
2022-11-27T20:36:46.126Z,100371.16
2022-11-27T20:39:20.621Z,100365.66
2022-11-27T20:41:50.239Z,100356.84
2022-11-27T20:44:18.706Z,100366.25
2022-11-27T20:46:46.638Z,100374.16
2022-11-27T20:49:14.674Z,100357.28
2022-11-27T20:51:42.509Z,100357.16
2022-11-27T20:54:12.066Z,100360.28
2022-11-27T20:56:41.215Z,100371.16
2022-11-27T20:59:08.730Z,100353.97
2022-11-27T21:01:37.750Z,100361.88
2022-11-27T21:04:09.821Z,100355.75
2022-11-27T21:06:43.655Z,100367.06
2022-11-27T21:09:14.212Z,100365.59
2022-11-27T21:11:43.868Z,100363.16
2022-11-27T21:14:14.984Z,100360.03
2022-11-27T21:16:48.679Z,100363.56
2022-11-27T21:19:24.242Z,100360.84
2022-11-27T21:21:53.609Z,100371.59
2022-11-27T21:24:23.758Z,100371.06
2022-11-27T21:26:51.197Z,100365.34
2022-11-27T21:29:18.830Z,100374.59
2022-11-27T21:31:47.837Z,100374.31
2022-11-27T21:34:16.152Z,100377.97
2022-11-27T21:36:44.672Z,100374.28
2022-11-27T21:39:14.622Z,100382.28
2022-11-27T21:41:42.047Z,100367.00
2022-11-27T21:44:11.776Z,100363.81
2022-11-27T21:46:39.278Z,100374.47
2022-11-27T21:49:07.468Z,100376.22
2022-11-27T21:51:34.955Z,100383.88
2022-11-27T21:54:10.208Z,100387.84
2022-11-27T21:56:40.420Z,100396.66
2022-11-27T21:59:10.979Z,100393.66
2022-11-27T22:01:38.984Z,100394.28
2022-11-27T22:04:06.564Z,100395.16
2022-11-27T22:06:39.839Z,100384.94
2022-11-27T22:09:14.737Z,100397.81
2022-11-27T22:11:43.447Z,100397.94
2022-11-27T22:14:12.059Z,100392.22
2022-11-27T22:16:44.699Z,100390.94
2022-11-27T22:19:14.603Z,100384.84
2022-11-27T22:21:43.666Z,100395.16
2022-11-27T22:24:16.877Z,100387.72
2022-11-27T22:26:48.163Z,100390.50
2022-11-27T22:29:15.583Z,100389.69
2022-11-27T22:31:43.048Z,100392.47
2022-11-27T22:34:10.672Z,100383.63
2022-11-27T22:36:39.346Z,100380.91
2022-11-27T22:39:09.240Z,100401.25
2022-11-27T22:41:38.413Z,100383.00
2022-11-27T22:44:11.372Z,100385.19
2022-11-27T22:46:40.998Z,100376.38
2022-11-27T22:49:10.763Z,100385.19
2022-11-27T22:51:38.773Z,100377.19
2022-11-27T22:54:10.031Z,100381.94
2022-11-27T22:56:39.281Z,100388.72
2022-11-27T23:01:55.198Z,100387.59
2022-11-27T23:04:23.033Z,100389.53
2022-11-27T23:06:50.895Z,100382.22
2022-11-27T23:09:19.122Z,100397.44
2022-11-27T23:11:46.776Z,100391.28
2022-11-27T23:14:14.299Z,100384.69
2022-11-27T23:16:42.040Z,100391.34
2022-11-27T23:19:10.249Z,100395.84
2022-11-27T23:21:39.025Z,100393.94
2022-11-27T23:24:13.652Z,100397.50
2022-11-27T23:26:41.447Z,100391.16
2022-11-27T23:29:09.146Z,100389.25
2022-11-27T23:31:36.860Z,100383.94
2022-11-27T23:34:07.855Z,100394.16
2022-11-27T23:36:36.264Z,100391.69
2022-11-27T23:39:05.575Z,100384.47
2022-11-27T23:41:33.298Z,100392.13
2022-11-27T23:44:01.808Z,100391.84
2022-11-27T23:46:30.309Z,100384.19
2022-11-27T23:49:00.111Z,100384.88
2022-11-27T23:51:33.024Z,100392.41
2022-11-27T23:54:01.144Z,100383.38
2022-11-27T23:56:31.474Z,100375.72
2022-11-27T23:58:59.647Z,100379.66
